Time;durP1;ratioP1;P1;durP2;ratioP2;P2;SDS_P1;SDS_P2;PMS_P1;PMS_P2;Temp;Humidity;BMP_temperature;BMP_pressure;BME280_temperature;BME280_humidity;BME280_pressure;Samples;Min_cycle;Max_cycle;Signal;HPM_P1;HPM_P2
2021/03/02 00:01:00;;;;;;;;;;;;;;;1.83;100.00;101727.38;5095733;28;19962;-81
2021/03/02 00:03:27;;;;;;;;;;;;;;;1.89;100.00;101737.19;5096088;28;19923;-81
2021/03/02 00:05:53;;;;;;;;;;;;;;;1.84;100.00;101742.81;5066057;28;19924;-79
2021/03/02 00:08:20;;;;;;;;;;;;;;;1.81;100.00;101761.88;5095864;28;19976;-79
2021/03/02 00:10:47;;;;;;;;;;;;;;;1.80;100.00;101791.38;5099482;28;19985;-80
2021/03/02 00:13:14;;;;;;;;;;;;;;;1.85;100.00;101823.56;5104186;28;19958;-79
2021/03/02 00:15:41;;;;;;;;;;;;;;;1.86;100.00;101850.84;5077297;28;19924;-81
2021/03/02 00:18:11;;;;;;;;;;;;;;;1.88;100.00;101883.63;5087727;28;19931;-79
2021/03/02 00:20:39;;;;;;;;;;;;;;;1.88;100.00;101921.44;5090476;28;19934;-79
2021/03/02 00:23:07;;;;;;;;;;;;;;;1.92;100.00;101983.16;5095867;28;19959;-79
2021/03/02 00:25:39;;;;;;;;;;;;;;;1.91;100.00;102042.19;5095801;28;19924;-80
2021/03/02 00:28:07;;;;;;;;;;;;;;;1.88;100.00;102184.22;5084503;28;19928;-80
2021/03/02 00:30:34;;;;;;;;;;;;;;;1.94;100.00;102234.66;5090806;28;19931;-82
2021/03/02 00:33:01;;;;;;;;;;;;;;;1.88;100.00;102251.25;5093935;28;19967;-81
2021/03/02 00:35:28;;;;;;;;;;;;;;;1.85;100.00;102270.28;5099325;28;19973;-82
2021/03/02 00:37:55;;;;;;;;;;;;;;;1.81;100.00;102272.00;5117333;28;19963;-81
2021/03/02 00:40:22;;;;;;;;;;;;;;;1.86;100.00;102283.78;5112472;28;19931;-81
2021/03/02 00:42:49;;;;;;;;;;;;;;;1.76;100.00;102267.34;5090658;28;19931;-81
2021/03/02 00:45:17;;;;;;;;;;;;;;;1.67;100.00;102274.59;5095293;28;19935;-80
2021/03/02 00:47:43;;;;;;;;;;;;;;;1.72;100.00;102269.03;5078245;28;19931;-81
2021/03/02 00:50:11;;;;;;;;;;;;;;;1.68;100.00;102269.91;5093892;28;20427;-80
2021/03/02 00:52:37;;;;;;;;;;;;;;;1.71;100.00;102264.63;5081244;28;19937;-81
2021/03/02 00:55:05;;;;;;;;;;;;;;;1.74;100.00;102264.03;5101945;28;20375;-80
2021/03/02 00:57:32;;;;;;;;;;;;;;;1.74;100.00;102263.25;5103124;28;19924;-81
2021/03/02 00:59:59;;;;;;;;;;;;;;;1.64;100.00;102194.38;5082034;28;19924;-81
2021/03/02 01:02:26;;;;;;;;;;;;;;;1.52;100.00;102171.91;5078484;28;20358;-81
2021/03/02 01:04:53;;;;;;;;;;;;;;;1.47;100.00;102163.69;5061822;28;19924;-80
2021/03/02 01:07:20;;;;;;;;;;;;;;;1.47;100.00;102153.47;5081793;28;20270;-81
2021/03/02 01:09:46;;;;;;;;;;;;;;;1.46;100.00;102151.84;5082045;28;19928;-80
2021/03/02 01:12:14;;;;;;;;;;;;;;;1.44;100.00;102148.53;5048472;28;20385;-80
2021/03/02 01:14:44;;;;;;;;;;;;;;;1.46;100.00;102146.31;5098984;28;20023;-81
2021/03/02 01:17:10;;;;;;;;;;;;;;;1.50;100.00;102141.06;5098566;28;20018;-81
2021/03/02 01:19:37;;;;;;;;;;;;;;;1.57;100.00;102142.38;5116855;28;19981;-79
2021/03/02 01:22:04;;;;;;;;;;;;;;;1.55;100.00;102141.81;5116712;28;19970;-79
2021/03/02 01:24:30;;;;;;;;;;;;;;;1.58;100.00;102132.16;5102215;28;19924;-80
2021/03/02 01:26:57;;;;;;;;;;;;;;;1.62;100.00;102127.72;5116867;28;19931;-79
2021/03/02 01:29:23;;;;;;;;;;;;;;;1.60;100.00;102114.22;5085368;28;19961;-79
2021/03/02 01:31:50;;;;;;;;;;;;;;;1.58;100.00;102121.94;5078201;28;19925;-79
2021/03/02 01:34:17;;;;;;;;;;;;;;;1.62;100.00;102109.22;5096470;28;19927;-79
2021/03/02 01:36:44;;;;;;;;;;;;;;;1.66;100.00;102107.53;5095404;28;19931;-79
2021/03/02 01:39:10;;;;;;;;;;;;;;;1.68;100.00;102099.78;5116051;28;19923;-79
2021/03/02 01:41:39;;;;;;;;;;;;;;;1.53;100.00;102101.91;5116445;28;20394;-79
2021/03/02 01:44:05;;;;;;;;;;;;;;;1.53;100.00;102097.19;5097819;28;19923;-79
2021/03/02 01:46:32;;;;;;;;;;;;;;;1.47;100.00;102117.63;5116269;28;19927;-79
2021/03/02 01:48:58;;;;;;;;;;;;;;;1.43;100.00;102113.81;5098052;28;19993;-79
2021/03/02 01:51:36;;;;;;;;;;;;;;;1.48;100.00;102122.06;5106222;28;20278;-80
2021/03/02 01:54:03;;;;;;;;;;;;;;;1.51;100.00;102121.47;5116198;28;20256;-79
2021/03/02 01:56:30;;;;;;;;;;;;;;;1.51;100.00;102120.66;5115877;28;20418;-79
2021/03/02 01:58:57;;;;;;;;;;;;;;;1.56;100.00;102113.13;5060726;28;19935;-79
2021/03/02 02:01:23;;;;;;;;;;;;;;;1.54;100.00;102120.06;5098103;28;19931;-79
2021/03/02 02:03:57;;;;;;;;;;;;;;;1.46;100.00;102110.50;5115626;28;19977;-79
2021/03/02 02:06:27;;;;;;;;;;;;;;;1.37;100.00;102106.72;5088337;28;19947;-79
2021/03/02 02:09:02;;;;;;;;;;;;;;;1.34;100.00;102096.28;5093812;28;20434;-79
2021/03/02 02:11:43;;;;;;;;;;;;;;;1.34;100.00;102099.03;5115483;28;19927;-79
2021/03/02 02:14:13;;;;;;;;;;;;;;;1.26;100.00;102091.38;5066774;28;19923;-79
2021/03/02 02:16:41;;;;;;;;;;;;;;;1.24;100.00;102081.78;5115816;28;19924;-79
2021/03/02 02:19:17;;;;;;;;;;;;;;;1.16;100.00;102072.19;5079137;28;20006;-79
2021/03/02 02:21:50;;;;;;;;;;;;;;;1.14;100.00;102066.16;5115387;28;20006;-78
2021/03/02 02:24:57;;;;;;;;;;;;;;;1.06;100.00;102065.97;5115448;28;19931;-79
2021/03/02 02:27:26;;;;;;;;;;;;;;;1.09;100.00;102068.94;5115149;28;19924;-79
2021/03/02 02:29:53;;;;;;;;;;;;;;;1.13;100.00;102063.69;5115413;28;20610;-79
2021/03/02 02:32:20;;;;;;;;;;;;;;;1.12;100.00;102054.59;5097759;28;19924;-79
2021/03/02 02:34:47;;;;;;;;;;;;;;;1.15;100.00;102044.94;5097269;28;19928;-79
2021/03/02 02:37:16;;;;;;;;;;;;;;;1.17;100.00;102043.53;5080124;28;19923;-79
2021/03/02 02:39:44;;;;;;;;;;;;;;;1.18;100.00;102042.41;5097266;28;19930;-79
2021/03/02 02:42:12;;;;;;;;;;;;;;;1.16;100.00;102036.41;5096860;28;19924;-79
2021/03/02 02:44:38;;;;;;;;;;;;;;;1.13;100.00;102025.97;5097515;28;19928;-79
2021/03/02 02:47:05;;;;;;;;;;;;;;;1.15;100.00;102026.47;5115162;28;19924;-79
2021/03/02 02:49:32;;;;;;;;;;;;;;;1.15;100.00;102026.47;5085955;28;19981;-79
2021/03/02 02:51:59;;;;;;;;;;;;;;;1.13;100.00;102025.97;5062682;28;20013;-79
2021/03/02 02:54:26;;;;;;;;;;;;;;;1.24;100.00;102021.97;5097235;28;20015;-79
2021/03/02 02:56:53;;;;;;;;;;;;;;;1.12;100.00;102018.78;5096573;28;19924;-79
2021/03/02 02:59:25;;;;;;;;;;;;;;;1.19;100.00;102029.47;5080051;28;20344;-79
2021/03/02 03:01:56;;;;;;;;;;;;;;;1.16;100.00;102027.31;5080185;28;20266;-79
2021/03/02 03:04:26;;;;;;;;;;;;;;;1.22;100.00;102021.47;5096908;28;19928;-79
2021/03/02 03:06:54;;;;;;;;;;;;;;;1.26;100.00;102019.75;5114832;28;20027;-79
2021/03/02 03:09:22;;;;;;;;;;;;;;;1.20;100.00;102012.66;5096079;28;20387;-79
2021/03/02 03:11:54;;;;;;;;;;;;;;;1.18;100.00;102006.59;5114730;28;19969;-79
2021/03/02 03:14:39;;;;;;;;;;;;;;;1.22;100.00;102001.34;5084140;28;19924;-79
2021/03/02 03:17:06;;;;;;;;;;;;;;;1.31;100.00;101994.09;5101028;28;20386;-80
2021/03/02 03:19:33;;;;;;;;;;;;;;;1.27;100.00;101991.09;5082076;28;19928;-80
2021/03/02 03:22:01;;;;;;;;;;;;;;;1.26;100.00;101986.69;5084633;28;19974;-80
2021/03/02 03:24:29;;;;;;;;;;;;;;;1.20;100.00;101987.03;5059209;28;19930;-79
2021/03/02 03:26:57;;;;;;;;;;;;;;;1.16;100.00;101981.31;5080064;28;19924;-79
2021/03/02 03:29:25;;;;;;;;;;;;;;;1.17;100.00;101977.44;5114663;28;20363;-79
2021/03/02 03:31:52;;;;;;;;;;;;;;;1.20;100.00;101976.00;5095538;28;20374;-79
2021/03/02 03:34:19;;;;;;;;;;;;;;;1.26;100.00;101970.16;5114370;28;19976;-79
2021/03/02 03:36:45;;;;;;;;;;;;;;;1.25;100.00;101974.03;5079291;28;19924;-79
2021/03/02 03:39:12;;;;;;;;;;;;;;;1.40;100.00;101965.59;5086693;28;19973;-79
2021/03/02 03:41:39;;;;;;;;;;;;;;;1.28;100.00;101965.19;5095410;28;20536;-79
2021/03/02 03:44:05;;;;;;;;;;;;;;;1.27;100.00;101966.28;5096607;28;20274;-79
2021/03/02 03:46:32;;;;;;;;;;;;;;;1.20;100.00;101956.72;5099415;28;19924;-79
2021/03/02 03:48:58;;;;;;;;;;;;;;;1.18;100.00;101951.50;5079387;28;19924;-79
2021/03/02 03:51:26;;;;;;;;;;;;;;;1.31;100.00;101950.84;5095904;28;19924;-79
2021/03/02 03:53:53;;;;;;;;;;;;;;;1.33;100.00;101954.09;5114092;28;19924;-79
2021/03/02 03:56:22;;;;;;;;;;;;;;;1.44;100.00;101946.53;5103428;28;19935;-79
2021/03/02 03:58:49;;;;;;;;;;;;;;;1.44;100.00;101947.34;5092733;28;19932;-79
2021/03/02 04:01:16;;;;;;;;;;;;;;;1.47;100.00;101940.47;5115681;28;19924;-79
2021/03/02 04:03:43;;;;;;;;;;;;;;;1.47;100.00;101935.75;5118072;28;19931;-79
2021/03/02 04:06:10;;;;;;;;;;;;;;;1.50;100.00;101935.16;5118035;28;19923;-79
2021/03/02 04:08:37;;;;;;;;;;;;;;;1.43;100.00;101931.94;5099492;28;19928;-79
2021/03/02 04:11:05;;;;;;;;;;;;;;;1.38;100.00;101931.19;5100080;28;19924;-79
2021/03/02 04:13:31;;;;;;;;;;;;;;;1.37;100.00;101930.38;5118157;28;19923;-79
2021/03/02 04:15:58;;;;;;;;;;;;;;;1.45;100.00;101929.69;5099835;28;19924;-79
2021/03/02 04:18:26;;;;;;;;;;;;;;;1.44;100.00;101921.72;5089460;28;19924;-79
2021/03/02 04:20:52;;;;;;;;;;;;;;;1.44;100.00;101925.31;5088204;28;20014;-79
2021/03/02 04:23:19;;;;;;;;;;;;;;;1.42;100.00;101919.28;5099508;28;20362;-79
2021/03/02 04:25:45;;;;;;;;;;;;;;;1.57;100.00;101913.59;5117528;28;19996;-79
2021/03/02 04:28:12;;;;;;;;;;;;;;;1.44;100.00;101902.44;5117384;28;19924;-79
2021/03/02 04:30:38;;;;;;;;;;;;;;;1.62;100.00;101905.25;5117687;28;19923;-79
2021/03/02 04:33:05;;;;;;;;;;;;;;;1.54;100.00;101902.34;5117709;28;19931;-79
2021/03/02 04:35:32;;;;;;;;;;;;;;;1.64;100.00;101894.75;5117256;28;20414;-78
2021/03/02 04:38:04;;;;;;;;;;;;;;;1.53;100.00;101890.47;5097396;28;19931;-79
2021/03/02 04:40:31;;;;;;;;;;;;;;;1.45;100.00;101891.13;5097038;28;19924;-79
2021/03/02 04:42:57;;;;;;;;;;;;;;;1.39;100.00;101888.75;5116395;28;19928;-79
2021/03/02 04:45:23;;;;;;;;;;;;;;;1.57;100.00;101891.53;5117409;28;19931;-79
2021/03/02 04:47:50;;;;;;;;;;;;;;;1.68;100.00;101898.53;5078928;28;19931;-79
2021/03/02 04:50:17;;;;;;;;;;;;;;;1.65;100.00;101885.34;5105118;28;19934;-79
2021/03/02 04:52:43;;;;;;;;;;;;;;;1.55;100.00;101879.97;5117013;28;19924;-79
2021/03/02 04:55:11;;;;;;;;;;;;;;;1.60;100.00;101887.38;5099107;28;19923;-79
2021/03/02 04:57:38;;;;;;;;;;;;;;;1.61;100.00;101891.75;5117154;28;19930;-79
2021/03/02 05:00:06;;;;;;;;;;;;;;;1.52;100.00;101890.78;5098893;28;19931;-79
2021/03/02 05:02:33;;;;;;;;;;;;;;;1.44;100.00;101883.97;5081873;28;19931;-79
2021/03/02 05:04:59;;;;;;;;;;;;;;;1.43;100.00;101881.53;5117065;28;19949;-79
2021/03/02 05:07:26;;;;;;;;;;;;;;;1.44;100.00;101875.72;5106469;28;19931;-79
2021/03/02 05:09:52;;;;;;;;;;;;;;;1.43;100.00;101878.75;5080681;28;19930;-79
2021/03/02 05:12:19;;;;;;;;;;;;;;;1.45;100.00;101873.78;5097900;28;19924;-79
2021/03/02 05:14:45;;;;;;;;;;;;;;;1.48;100.00;101878.72;5098509;28;19924;-79
2021/03/02 05:17:12;;;;;;;;;;;;;;;1.41;100.00;101872.72;5098528;28;19923;-79
2021/03/02 05:19:38;;;;;;;;;;;;;;;1.38;100.00;101874.16;5081433;28;19927;-79
2021/03/02 05:22:04;;;;;;;;;;;;;;;1.32;100.00;101867.06;5116533;28;19931;-79
2021/03/02 05:24:31;;;;;;;;;;;;;;;1.31;100.00;101870.09;5078244;28;19966;-79
2021/03/02 05:26:59;;;;;;;;;;;;;;;1.28;100.00;101866.03;5095285;28;20915;-79
2021/03/02 05:29:26;;;;;;;;;;;;;;;1.28;100.00;101866.03;5082293;28;19989;-79
2021/03/02 05:31:53;;;;;;;;;;;;;;;1.37;100.00;101867.00;5102115;28;19931;-79
2021/03/02 05:34:20;;;;;;;;;;;;;;;1.33;100.00;101857.66;5116135;28;19928;-79
2021/03/02 05:36:46;;;;;;;;;;;;;;;1.24;100.00;101862.19;5061498;28;19932;-79
2021/03/02 05:39:13;;;;;;;;;;;;;;;1.22;100.00;101861.69;5074951;28;19973;-79
2021/03/02 05:41:40;;;;;;;;;;;;;;;1.18;100.00;101862.56;5088883;28;20329;-79
2021/03/02 05:44:09;;;;;;;;;;;;;;;1.20;100.00;101865.84;5116311;28;19951;-79
2021/03/02 05:46:36;;;;;;;;;;;;;;;1.22;100.00;101864.44;5116385;28;19931;-79
2021/03/02 05:49:04;;;;;;;;;;;;;;;1.18;100.00;101868.88;5115606;28;20440;-79
2021/03/02 05:51:31;;;;;;;;;;;;;;;1.22;100.00;101863.63;5116136;28;19988;-79
2021/03/02 05:53:59;;;;;;;;;;;;;;;1.16;100.00;101853.78;5097597;28;19928;-79
2021/03/02 05:56:25;;;;;;;;;;;;;;;1.21;100.00;101856.47;5115839;28;20282;-79
2021/03/02 05:58:52;;;;;;;;;;;;;;;1.17;100.00;101856.22;5103262;28;20302;-79
2021/03/02 06:01:18;;;;;;;;;;;;;;;1.18;100.00;101852.34;5096145;28;19923;-78
2021/03/02 06:03:45;;;;;;;;;;;;;;;1.22;100.00;101849.84;5086618;28;20016;-79
2021/03/02 06:06:11;;;;;;;;;;;;;;;1.18;100.00;101852.34;5094139;28;19931;-79
2021/03/02 06:08:38;;;;;;;;;;;;;;;1.22;100.00;101858.94;5106685;28;19928;-79
2021/03/02 06:11:23;;;;;;;;;;;;;;;1.19;100.00;101854.00;5096074;28;19924;-82
2021/03/02 06:13:50;;;;;;;;;;;;;;;1.16;100.00;101860.09;5097358;28;20328;-79
2021/03/02 06:16:17;;;;;;;;;;;;;;;1.11;100.00;101846.38;5115325;28;20320;-79
2021/03/02 06:18:50;;;;;;;;;;;;;;;1.12;100.00;101853.53;5089385;28;19924;-79
2021/03/02 06:21:17;;;;;;;;;;;;;;;1.07;100.00;101845.34;5075502;28;20511;-79
2021/03/02 06:23:47;;;;;;;;;;;;;;;1.08;100.00;101846.16;5089618;28;19927;-79
2021/03/02 06:26:13;;;;;;;;;;;;;;;1.04;100.00;101845.94;5090261;28;19928;-79
2021/03/02 06:28:40;;;;;;;;;;;;;;;1.15;100.00;101841.94;5113326;28;19931;-81
2021/03/02 06:31:07;;;;;;;;;;;;;;;1.14;100.00;101848.56;5102979;28;19927;-82
2021/03/02 06:33:37;;;;;;;;;;;;;;;1.06;100.00;101849.19;5114083;28;19927;-79
2021/03/02 06:36:17;;;;;;;;;;;;;;;1.03;100.00;101835.22;5100394;28;19937;-80
2021/03/02 06:38:43;;;;;;;;;;;;;;;0.97;100.00;101842.69;5096517;28;19931;-78
2021/03/02 06:41:19;;;;;;;;;;;;;;;0.96;100.00;101832.81;5107768;28;19924;-78
2021/03/02 06:43:46;;;;;;;;;;;;;;;0.95;100.00;101824.84;5108836;28;19923;-79
2021/03/02 06:46:13;;;;;;;;;;;;;;;0.89;100.00;101826.84;5102568;28;19924;-79
2021/03/02 06:48:56;;;;;;;;;;;;;;;0.87;100.00;101820.81;5107363;28;19924;-79
2021/03/02 06:51:30;;;;;;;;;;;;;;;0.93;100.00;101805.88;5066825;28;20339;-78
2021/03/02 06:54:16;;;;;;;;;;;;;;;0.85;100.00;101820.28;5108205;28;19924;-78
2021/03/02 06:56:58;;;;;;;;;;;;;;;0.81;100.00;101815.63;5089372;28;19924;-78
2021/03/02 06:59:26;;;;;;;;;;;;;;;0.76;100.00;101816.53;5094501;28;19966;-78
2021/03/02 07:01:53;;;;;;;;;;;;;;;0.76;100.00;101804.72;5108996;28;19931;-78
2021/03/02 07:04:20;;;;;;;;;;;;;;;0.77;100.00;101807.16;5064811;28;20380;-79
2021/03/02 07:06:51;;;;;;;;;;;;;;;0.68;100.00;101803.38;5079566;28;20350;-78
2021/03/02 07:09:18;;;;;;;;;;;;;;;0.68;100.00;101803.38;5088394;28;20432;-78
2021/03/02 07:11:45;;;;;;;;;;;;;;;0.67;100.00;101810.00;5075861;28;19969;-78
2021/03/02 07:14:15;;;;;;;;;;;;;;;0.67;100.00;101818.28;5075945;28;20362;-81
2021/03/02 07:16:51;;;;;;;;;;;;;;;0.68;100.00;101814.41;5090477;28;19944;-78
2021/03/02 07:19:19;;;;;;;;;;;;;;;0.65;100.00;101819.69;5089827;28;19951;-79
2021/03/02 07:21:54;;;;;;;;;;;;;;;0.69;100.00;101816.06;5090224;28;20031;-78
2021/03/02 07:24:28;;;;;;;;;;;;;;;0.72;100.00;101814.66;5086318;28;19931;-78
2021/03/02 07:26:57;;;;;;;;;;;;;;;0.82;100.00;101815.34;5093785;28;20378;-78
2021/03/02 07:29:24;;;;;;;;;;;;;;;0.74;100.00;101807.75;5093703;28;19928;-78
2021/03/02 07:31:51;;;;;;;;;;;;;;;0.71;100.00;101811.06;5079464;28;19947;-78
2021/03/02 07:34:17;;;;;;;;;;;;;;;0.72;100.00;101809.97;5075836;28;19928;-79
2021/03/02 07:36:44;;;;;;;;;;;;;;;0.70;100.00;101817.69;5096397;28;19931;-79
2021/03/02 07:39:29;;;;;;;;;;;;;;;0.73;100.00;101817.09;5079909;28;19978;-79
2021/03/02 07:41:56;;;;;;;;;;;;;;;0.73;100.00;101808.84;5080142;28;19924;-78
2021/03/02 07:44:23;;;;;;;;;;;;;;;0.75;100.00;101816.81;5096557;28;19963;-78
2021/03/02 07:46:53;;;;;;;;;;;;;;;0.76;100.00;101816.53;5065929;28;19955;-78
2021/03/02 07:49:24;;;;;;;;;;;;;;;0.81;100.00;101812.88;5075282;28;19946;-78
2021/03/02 07:51:56;;;;;;;;;;;;;;;0.85;100.00;101819.47;5094922;28;19928;-79
2021/03/02 07:54:23;;;;;;;;;;;;;;;0.72;100.00;101807.22;5075088;28;20031;-79
2021/03/02 07:57:09;;;;;;;;;;;;;;;0.75;100.00;101808.56;5091227;28;19932;-77
2021/03/02 07:59:36;;;;;;;;;;;;;;;0.74;100.00;101810.50;5065387;28;19924;-77
2021/03/02 08:02:16;;;;;;;;;;;;;;;0.71;100.00;101802.00;5063256;28;19932;-77
2021/03/02 08:04:49;;;;;;;;;;;;;;;0.77;100.00;101806.34;5064289;28;19955;-77
2021/03/02 08:07:19;;;;;;;;;;;;;;;0.81;100.00;101807.38;5097852;28;19924;-77
2021/03/02 08:09:47;;;;;;;;;;;;;;;0.74;100.00;101812.44;5099163;28;20014;-77
2021/03/02 08:12:24;;;;;;;;;;;;;;;0.71;100.00;101808.31;5107436;28;19931;-78
2021/03/02 08:14:50;;;;;;;;;;;;;;;0.65;100.00;101808.69;5117139;28;19932;-78
2021/03/02 08:17:20;;;;;;;;;;;;;;;0.69;100.00;101805.06;5099085;28;19947;-78
2021/03/02 08:19:59;;;;;;;;;;;;;;;0.68;100.00;101803.38;5099004;28;20489;-78
2021/03/02 08:22:30;;;;;;;;;;;;;;;0.65;100.00;101805.94;5116930;28;19956;-75
2021/03/02 08:24:58;;;;;;;;;;;;;;;0.66;100.00;101805.63;5096566;28;19932;-75
2021/03/02 08:27:40;;;;;;;;;;;;;;;0.71;100.00;101802.81;5084812;28;19924;-75
2021/03/02 08:30:09;;;;;;;;;;;;;;;0.80;100.00;101798.31;5112400;28;20061;-76
2021/03/02 08:32:36;;;;;;;;;;;;;;;0.77;100.00;101804.41;5098680;28;19924;-76
2021/03/02 08:35:10;;;;;;;;;;;;;;;0.79;100.00;101796.66;5088658;28;20034;-75
2021/03/02 08:37:49;;;;;;;;;;;;;;;0.81;100.00;101810.13;5100838;28;19924;-78
2021/03/02 08:40:31;;;;;;;;;;;;;;;0.75;100.00;101809.38;5081189;28;19924;-76
2021/03/02 08:43:04;;;;;;;;;;;;;;;0.73;100.00;101799.75;5100697;28;19924;-75
2021/03/02 08:45:33;;;;;;;;;;;;;;;0.86;100.00;101799.91;5079508;28;20054;-75
2021/03/02 08:48:13;;;;;;;;;;;;;;;0.74;100.00;101799.50;5084730;28;20279;-75
2021/03/02 08:50:39;;;;;;;;;;;;;;;0.82;100.00;101798.81;5087513;28;19931;-75
2021/03/02 08:53:24;;;;;;;;;;;;;;;0.70;100.00;101790.16;5098106;28;20340;-75
2021/03/02 08:55:51;;;;;;;;;;;;;;;0.79;100.00;101791.16;5103035;28;20298;-75
2021/03/02 08:58:27;;;;;;;;;;;;;;;0.84;100.00;101785.59;5105281;28;19924;-75
2021/03/02 09:01:01;;;;;;;;;;;;;;;0.92;100.00;101784.97;5104149;28;19924;-76
2021/03/02 09:03:28;;;;;;;;;;;;;;;0.77;100.00;101785.16;5109511;28;19930;-76
2021/03/02 09:06:06;;;;;;;;;;;;;;;0.70;100.00;101784.66;5111935;28;20370;-75
2021/03/02 09:08:42;;;;;;;;;;;;;;;0.77;100.00;101784.31;5079563;28;19930;-76
2021/03/02 09:11:09;;;;;;;;;;;;;;;0.73;100.00;101784.06;5090585;28;19932;-76
2021/03/02 09:13:36;;;;;;;;;;;;;;;0.61;100.00;101785.59;5089980;28;19927;-76
2021/03/02 09:16:23;;;;;;;;;;;;;;;0.65;100.00;101781.97;5092473;28;19947;-80
2021/03/02 09:19:07;;;;;;;;;;;;;;;0.85;100.00;101789.19;5080002;28;19924;-77
2021/03/02 09:21:36;;;;;;;;;;;;;;;0.96;100.00;101788.75;5098577;28;20290;-78
2021/03/02 09:24:03;;;;;;;;;;;;;;;0.95;100.00;101789.88;5116455;28;19924;-78
2021/03/02 09:26:30;;;;;;;;;;;;;;;0.82;100.00;101787.81;5080722;28;20374;-77
2021/03/02 09:29:01;;;;;;;;;;;;;;;0.92;100.00;101792.38;5088036;28;19974;-77
2021/03/02 09:31:28;;;;;;;;;;;;;;;1.03;100.00;101793.91;5106590;28;20008;-77
2021/03/02 09:33:55;;;;;;;;;;;;;;;0.87;100.00;101795.19;5083410;28;19993;-77
2021/03/02 09:36:24;;;;;;;;;;;;;;;0.86;100.00;101790.81;5115912;28;19923;-78
2021/03/02 09:38:51;;;;;;;;;;;;;;;0.94;100.00;101796.47;5097559;28;20362;-78
2021/03/02 09:41:47;;;;;;;;;;;;;;;0.92;100.00;101798.72;5086716;28;19928;-78
2021/03/02 09:44:28;;;;;;;;;;;;;;;0.83;100.00;101788.66;5084149;28;19928;-77
2021/03/02 09:46:57;;;;;;;;;;;;;;;0.70;100.00;101786.59;5089445;28;19924;-80
2021/03/02 09:49:31;;;;;;;;;;;;;;;0.63;100.00;101795.22;5097715;28;20279;-80
2021/03/02 09:51:58;;;;;;;;;;;;;;;0.61;100.00;101786.41;5097317;28;19934;-80
2021/03/02 09:54:25;;;;;;;;;;;;;;;0.58;100.00;101798.00;5106376;28;20328;-77
2021/03/02 09:56:55;;;;;;;;;;;;;;;0.60;100.00;101794.97;5114952;28;20032;-77
2021/03/02 09:59:22;;;;;;;;;;;;;;;0.56;100.00;101799.41;5101092;28;19924;-77
2021/03/02 10:01:49;;;;;;;;;;;;;;;0.70;100.00;101805.84;5096253;28;19923;-77
2021/03/02 10:04:16;;;;;;;;;;;;;;;0.87;100.00;101807.03;5114507;28;19924;-77
2021/03/02 10:06:43;;;;;;;;;;;;;;;0.93;100.00;101811.38;5096624;28;19924;-78
2021/03/02 10:09:19;;;;;;;;;;;;;;;1.02;100.00;101817.03;5114524;28;19986;-77
2021/03/02 10:11:46;;;;;;;;;;;;;;;0.93;100.00;101816.03;5102435;28;19927;-78
2021/03/02 10:14:13;;;;;;;;;;;;;;;1.06;100.00;101816.16;5114892;28;20267;-78
2021/03/02 10:16:42;;;;;;;;;;;;;;;1.11;100.00;101807.84;5114085;28;19924;-78
2021/03/02 10:19:21;;;;;;;;;;;;;;;1.23;100.00;101824.75;5096484;28;20347;-77
2021/03/02 10:21:49;;;;;;;;;;;;;;;1.50;100.00;101833.19;5096208;28;19924;-77
2021/03/02 10:24:36;;;;;;;;;;;;;;;1.36;100.00;101837.00;5096343;28;20008;-77
2021/03/02 10:27:09;;;;;;;;;;;;;;;1.66;100.00;101831.88;5096362;28;20338;-77
2021/03/02 10:29:35;;;;;;;;;;;;;;;1.46;100.00;101842.34;5096474;28;19924;-78
2021/03/02 10:32:03;;;;;;;;;;;;;;;1.52;100.00;101847.50;5096645;28;19927;-77
2021/03/02 10:34:37;;;;;;;;;;;;;;;1.59;100.00;101850.69;5114639;28;19924;-78
2021/03/02 10:37:04;;;;;;;;;;;;;;;1.62;100.00;101861.13;5114708;28;19943;-77
2021/03/02 10:39:32;;;;;;;;;;;;;;;1.59;100.00;101861.72;5079331;28;19927;-77
2021/03/02 10:41:59;;;;;;;;;;;;;;;1.50;100.00;101855.25;5114505;28;20308;-78
2021/03/02 10:44:26;;;;;;;;;;;;;;;1.46;100.00;101854.19;5096253;28;19924;-77
2021/03/02 10:46:52;;;;;;;;;;;;;;;1.74;100.00;101861.50;5079284;28;20259;-77
2021/03/02 10:49:19;;;;;;;;;;;;;;;1.71;100.00;101872.34;5114330;28;20338;-77
2021/03/02 10:51:45;;;;;;;;;;;;;;;1.78;100.00;101879.13;5114365;28;20298;-77
2021/03/02 10:54:12;;;;;;;;;;;;;;;2.18;100.00;101887.88;5095030;28;19924;-77
2021/03/02 10:56:39;;;;;;;;;;;;;;;2.16;100.00;101890.13;5095501;28;20259;-77
2021/03/02 10:59:06;;;;;;;;;;;;;;;2.26;100.00;101898.25;5113586;28;19928;-78
2021/03/02 11:01:32;;;;;;;;;;;;;;;2.46;100.00;101917.22;5113631;28;20006;-77
2021/03/02 11:03:59;;;;;;;;;;;;;;;2.41;100.00;101931.13;5096070;28;19924;-77
2021/03/02 11:06:25;;;;;;;;;;;;;;;2.14;100.00;101929.03;5095809;28;19924;-77
2021/03/02 11:09:01;;;;;;;;;;;;;;;2.36;100.00;101940.31;5096935;28;20382;-77
2021/03/02 11:11:28;;;;;;;;;;;;;;;2.46;100.00;101942.06;5094937;28;19928;-77
2021/03/02 11:13:54;;;;;;;;;;;;;;;2.70;100.00;101956.56;5114003;28;19946;-77
2021/03/02 11:16:22;;;;;;;;;;;;;;;2.39;100.00;101958.19;5095027;28;19930;-77
2021/03/02 11:18:50;;;;;;;;;;;;;;;2.21;100.00;101959.03;5095697;28;19924;-77
2021/03/02 11:21:17;;;;;;;;;;;;;;;2.16;100.00;101962.69;5095336;28;20360;-77
2021/03/02 11:23:43;;;;;;;;;;;;;;;2.11;100.00;101970.19;5113130;28;19927;-77
2021/03/02 11:26:10;;;;;;;;;;;;;;;2.22;100.00;101977.22;5113902;28;19930;-77
2021/03/02 11:28:36;;;;;;;;;;;;;;;1.98;100.00;101976.44;5113577;28;19931;-77
2021/03/02 11:31:03;;;;;;;;;;;;;;;2.09;100.00;101983.47;5095678;28;20267;-77
2021/03/02 11:33:30;;;;;;;;;;;;;;;1.97;100.00;101988.59;5095661;28;19924;-77
2021/03/02 11:35:57;;;;;;;;;;;;;;;2.29;100.00;101997.78;5095666;28;19973;-77
2021/03/02 11:38:23;;;;;;;;;;;;;;;2.35;100.00;101998.56;5113645;28;19924;-77
2021/03/02 11:40:50;;;;;;;;;;;;;;;2.19;100.00;102006.22;5078854;28;19976;-77
2021/03/02 11:43:16;;;;;;;;;;;;;;;2.17;100.00;102013.13;5113215;28;19937;-77
2021/03/02 11:45:43;;;;;;;;;;;;;;;2.46;100.00;102022.94;5113124;28;19924;-77
2021/03/02 11:48:10;;;;;;;;;;;;;;;2.18;100.00;102032.16;5092515;28;20014;-79
2021/03/02 11:50:42;;;;;;;;;;;;;;;2.00;100.00;102029.38;5094541;28;19924;-77
2021/03/02 11:53:09;;;;;;;;;;;;;;;1.96;100.00;102047.63;5092155;28;19924;-77
2021/03/02 11:55:36;;;;;;;;;;;;;;;2.16;100.00;102050.13;5112618;28;19973;-80
2021/03/02 11:58:03;;;;;;;;;;;;;;;2.25;100.00;102060.22;5069515;28;19928;-81
2021/03/02 12:00:30;;;;;;;;;;;;;;;2.07;100.00;102057.41;5101663;28;19932;-82
2021/03/02 12:02:58;;;;;;;;;;;;;;;1.99;100.00;102055.31;5114161;28;20423;-78
2021/03/02 12:05:25;;;;;;;;;;;;;;;2.06;100.00;102064.06;5109654;28;19923;-77
2021/03/02 12:07:52;;;;;;;;;;;;;;;2.04;100.00;102069.03;5078886;28;20009;-77
2021/03/02 12:10:19;;;;;;;;;;;;;;;2.08;100.00;102070.91;5093097;28;19924;-78
2021/03/02 12:12:46;;;;;;;;;;;;;;;2.12;100.00;102074.72;5092905;28;19924;-77
2021/03/02 12:15:12;;;;;;;;;;;;;;;2.08;100.00;102075.59;5093134;28;19986;-78
2021/03/02 12:17:39;;;;;;;;;;;;;;;2.15;100.00;102081.59;5093109;28;19924;-78
2021/03/02 12:20:07;;;;;;;;;;;;;;;2.38;100.00;102075.25;5092682;28;20379;-78
2021/03/02 12:22:35;;;;;;;;;;;;;;;2.65;100.00;102081.72;5094299;28;19959;-78
2021/03/02 12:25:02;;;;;;;;;;;;;;;2.91;100.00;102085.75;5096627;28;20394;-79
2021/03/02 12:27:29;;;;;;;;;;;;;;;2.85;100.00;102097.16;5078698;28;19924;-78
2021/03/02 12:29:55;;;;;;;;;;;;;;;2.77;100.00;102098.66;5066356;28;19931;-78
2021/03/02 12:32:22;;;;;;;;;;;;;;;2.62;100.00;102095.31;5077017;28;19928;-78
2021/03/02 12:34:49;;;;;;;;;;;;;;;2.53;100.00;102092.38;5078312;28;19924;-78
2021/03/02 12:37:15;;;;;;;;;;;;;;;2.40;100.00;102084.00;5061784;28;20279;-77
2021/03/02 12:39:42;;;;;;;;;;;;;;;2.36;100.00;102089.34;5096740;28;19944;-78
2021/03/02 12:42:08;;;;;;;;;;;;;;;2.34;100.00;102080.50;5096467;28;19934;-78
2021/03/02 12:44:35;;;;;;;;;;;;;;;2.52;100.00;102087.16;5078641;28;19924;-78